Terminal Aerodrome Forecast
Issued by NWS New Orleans/Baton Rouge, LA

Home | Current Version | Previous Version | Text Only | Print | Product List | Glossary On
Versions: 1 2 3 4 5 6 7 8 9 10 11 12 13 14
000
FTUS44 KLIX 171743
TAFBTR
TAF
KBTR 171743Z 1718/1818 15005KT 5SM -RA BR OVC004
     FM172000 17003KT 6SM BR SCT005 OVC010
      TEMPO 1720/1722 4SM -RA OVC008
     FM180100 VRB03KT 5SM BR OVC020
     FM180400 00000KT 1 1/2SM BR OVC015
     FM180500 00000KT 1/2SM FG VCSH OVC003
     FM181600 10004KT 1SM SHRA BR OVC008=

USA.gov is the U.S. government's official web portal to all federal, state and local government web resources and services.